createdAt,value
2023-02-27T00:01:16.341Z,1.88
2023-02-27T00:04:18.134Z,2.10
2023-02-27T00:07:19.785Z,2.03
2023-02-27T00:10:22.181Z,1.88
2023-02-27T00:13:23.783Z,1.95
2023-02-27T00:16:25.538Z,1.85
2023-02-27T00:19:27.241Z,1.77
2023-02-27T00:22:28.964Z,2.08
2023-02-27T00:25:31.554Z,1.60
2023-02-27T00:28:34.129Z,1.95
2023-02-27T00:31:37.904Z,1.75
2023-02-27T00:34:40.109Z,2.20
2023-02-27T00:37:43.025Z,1.90
2023-02-27T00:40:44.645Z,1.95
2023-02-27T00:43:46.509Z,1.60
2023-02-27T00:46:48.190Z,1.70
2023-02-27T00:49:49.872Z,2.00
2023-02-27T00:52:52.467Z,1.90
2023-02-27T00:55:54.411Z,1.47
2023-02-27T00:58:56.202Z,2.03
2023-02-27T01:01:58.329Z,1.92
2023-02-27T01:05:04.511Z,2.00
2023-02-27T01:08:07.384Z,1.80
2023-02-27T01:11:11.818Z,1.83
2023-02-27T01:14:13.652Z,2.00
2023-02-27T01:17:15.258Z,1.80
2023-02-27T01:20:17.592Z,2.00
2023-02-27T01:23:20.863Z,1.70
2023-02-27T01:26:25.038Z,1.67
2023-02-27T01:29:28.011Z,1.83
2023-02-27T01:32:29.732Z,1.80
2023-02-27T01:35:33.530Z,1.83
2023-02-27T01:38:39.023Z,1.95
2023-02-27T01:41:41.940Z,2.20
2023-02-27T01:45:12.278Z,2.10
2023-02-27T01:48:29.358Z,2.20
2023-02-27T01:51:36.583Z,2.00
2023-02-27T01:54:41.901Z,1.88
2023-02-27T01:57:46.377Z,1.63
2023-02-27T02:00:50.217Z,2.20
2023-02-27T02:04:28.302Z,2.00
2023-02-27T02:07:38.903Z,1.87
2023-02-27T02:10:41.697Z,2.00
2023-02-27T02:13:43.396Z,1.85
2023-02-27T02:17:18.395Z,2.10
2023-02-27T02:21:14.568Z,1.77
2023-02-27T02:24:37.797Z,2.00
2023-02-27T02:28:11.040Z,2.08
2023-02-27T02:32:14.862Z,1.93
2023-02-27T02:35:45.008Z,1.98
2023-02-27T02:39:01.436Z,2.00
2023-02-27T02:42:13.032Z,2.37
2023-02-27T02:45:22.836Z,2.30
2023-02-27T02:49:01.021Z,2.13
2023-02-27T02:52:14.541Z,2.35
2023-02-27T02:55:35.554Z,2.45
2023-02-27T02:59:08.859Z,2.05
2023-02-27T03:02:16.393Z,2.35
2023-02-27T03:05:30.479Z,2.60
2023-02-27T03:08:45.298Z,2.13
2023-02-27T03:11:51.178Z,2.53
2023-02-27T03:15:13.773Z,2.43
2023-02-27T03:18:21.172Z,2.20
2023-02-27T03:21:29.995Z,2.38
2023-02-27T03:24:46.405Z,2.65
2023-02-27T03:28:01.720Z,2.25
2023-02-27T03:31:57.461Z,2.22
2023-02-27T03:35:00.116Z,2.40
2023-02-27T03:38:11.809Z,2.43
2023-02-27T03:41:20.154Z,2.10
2023-02-27T03:44:47.047Z,2.15
2023-02-27T03:47:49.016Z,2.23
2023-02-27T03:50:50.830Z,2.30
2023-02-27T03:53:57.133Z,3.03
2023-02-27T03:57:05.885Z,2.40
2023-02-27T04:00:11.762Z,2.42
2023-02-27T04:03:17.338Z,2.70
2023-02-27T04:06:37.695Z,2.35
2023-02-27T04:10:00.746Z,2.20
2023-02-27T04:13:16.984Z,2.58
2023-02-27T04:16:30.776Z,2.40
2023-02-27T04:19:59.068Z,2.70
2023-02-27T04:23:10.008Z,2.35
2023-02-27T04:26:14.668Z,2.70
2023-02-27T04:29:23.422Z,2.63
2023-02-27T04:32:39.749Z,2.47
2023-02-27T04:35:45.282Z,2.13
2023-02-27T04:39:12.360Z,2.85
2023-02-27T04:42:18.318Z,2.53
2023-02-27T04:45:23.645Z,2.80
2023-02-27T04:48:30.294Z,2.70
2023-02-27T04:51:40.619Z,2.90
2023-02-27T04:54:58.267Z,2.25
2023-02-27T04:58:05.484Z,2.53
2023-02-27T05:01:41.707Z,2.80
2023-02-27T05:04:46.403Z,2.55
2023-02-27T05:07:54.364Z,2.65
2023-02-27T05:10:59.795Z,2.70
2023-02-27T05:14:10.417Z,2.57
2023-02-27T05:17:20.218Z,2.40
2023-02-27T05:20:28.384Z,2.67
2023-02-27T05:23:41.708Z,2.70
2023-02-27T05:26:57.228Z,2.47
2023-02-27T05:30:06.987Z,2.67
2023-02-27T05:33:18.483Z,2.70
2023-02-27T05:36:26.427Z,2.92
2023-02-27T05:39:32.746Z,2.40
2023-02-27T05:42:45.322Z,2.60
2023-02-27T05:45:52.734Z,2.50
2023-02-27T05:48:58.560Z,2.78
2023-02-27T05:52:04.620Z,2.50
2023-02-27T05:55:30.264Z,2.50
2023-02-27T05:59:12.808Z,2.50
2023-02-27T06:02:17.268Z,2.78
2023-02-27T06:05:20.080Z,2.90
2023-02-27T06:08:25.069Z,2.67
2023-02-27T06:11:26.795Z,2.42
2023-02-27T06:14:30.442Z,2.70
2023-02-27T06:17:32.697Z,2.90
2023-02-27T06:20:34.624Z,3.05
2023-02-27T06:23:37.648Z,2.80
2023-02-27T06:26:43.506Z,2.93
2023-02-27T06:29:45.531Z,2.95
2023-02-27T06:32:49.441Z,2.92
2023-02-27T06:35:52.127Z,3.17
2023-02-27T06:38:54.198Z,2.78
2023-02-27T06:41:55.952Z,3.10
2023-02-27T06:44:58.472Z,3.00
2023-02-27T06:48:00.525Z,3.20
2023-02-27T06:51:04.055Z,3.20
2023-02-27T06:54:06.297Z,3.13
2023-02-27T06:57:09.775Z,2.83
2023-02-27T07:00:13.070Z,3.08
2023-02-27T07:03:15.049Z,3.03
2023-02-27T07:06:16.901Z,2.90
2023-02-27T07:09:18.886Z,2.63
2023-02-27T07:12:20.560Z,2.90
2023-02-27T07:15:22.842Z,3.08
2023-02-27T07:18:25.626Z,3.13
2023-02-27T07:21:27.814Z,3.05
2023-02-27T07:24:29.840Z,3.13
2023-02-27T07:27:32.410Z,3.13
2023-02-27T07:30:34.280Z,2.95
2023-02-27T07:33:38.518Z,2.80
2023-02-27T07:36:42.202Z,3.08
2023-02-27T07:39:45.008Z,3.08
2023-02-27T07:42:53.040Z,3.10
2023-02-27T07:45:55.479Z,3.13
2023-02-27T07:48:57.545Z,2.70
2023-02-27T07:51:59.205Z,3.55
2023-02-27T07:55:00.802Z,2.70
2023-02-27T07:58:02.862Z,2.63
2023-02-27T08:01:04.609Z,2.65
2023-02-27T08:04:06.564Z,2.80
2023-02-27T08:07:10.366Z,3.05
2023-02-27T08:10:12.804Z,3.25
2023-02-27T08:13:16.746Z,3.10
2023-02-27T08:16:18.920Z,2.85
2023-02-27T08:19:20.644Z,2.93
2023-02-27T08:22:22.361Z,2.60
2023-02-27T08:25:25.086Z,2.85
2023-02-27T08:28:27.858Z,2.93
2023-02-27T08:31:29.752Z,2.63
2023-02-27T08:34:32.084Z,2.40
2023-02-27T08:37:33.876Z,2.70
2023-02-27T08:40:35.788Z,2.65
2023-02-27T08:43:40.208Z,2.67
2023-02-27T08:46:41.923Z,2.70
2023-02-27T08:49:44.860Z,2.63
2023-02-27T08:52:46.998Z,2.70
2023-02-27T08:55:53.847Z,2.67
2023-02-27T08:58:56.429Z,3.00
2023-02-27T09:01:58.316Z,2.83
2023-02-27T09:05:01.271Z,3.03
2023-02-27T09:08:05.006Z,3.00
2023-02-27T09:11:09.721Z,2.92
2023-02-27T09:14:12.528Z,2.63
2023-02-27T09:17:15.481Z,2.55
2023-02-27T09:20:19.476Z,3.00
2023-02-27T09:23:21.375Z,2.63
2023-02-27T09:26:39.752Z,2.70
2023-02-27T09:29:45.297Z,2.57
2023-02-27T09:32:47.063Z,2.53
2023-02-27T09:35:48.723Z,2.75
2023-02-27T09:38:50.789Z,2.60
2023-02-27T09:42:07.483Z,2.78
2023-02-27T09:45:18.213Z,3.00
2023-02-27T09:48:32.569Z,2.45
2023-02-27T09:51:34.243Z,2.73
2023-02-27T09:54:36.634Z,2.70
2023-02-27T09:57:47.444Z,2.65
2023-02-27T10:01:10.454Z,2.60
2023-02-27T10:04:31.492Z,2.40
2023-02-27T10:08:15.446Z,2.47
2023-02-27T10:11:25.970Z,3.13
2023-02-27T10:14:57.162Z,2.20
2023-02-27T10:18:25.503Z,2.53
2023-02-27T10:21:44.726Z,2.30
2023-02-27T10:24:59.808Z,2.40
2023-02-27T10:28:17.101Z,2.53
2023-02-27T10:31:26.714Z,2.50
2023-02-27T10:34:31.001Z,2.40
2023-02-27T10:37:33.536Z,2.80
2023-02-27T10:40:41.548Z,2.55
2023-02-27T10:43:46.161Z,2.70
2023-02-27T10:46:51.335Z,2.25
2023-02-27T10:49:55.416Z,2.35
2023-02-27T10:53:00.712Z,2.30
2023-02-27T10:56:06.773Z,2.20
2023-02-27T10:59:19.713Z,2.70
2023-02-27T11:02:42.621Z,2.25
2023-02-27T11:06:13.320Z,2.20
2023-02-27T11:09:24.399Z,2.40
2023-02-27T11:12:33.249Z,2.30
2023-02-27T11:15:38.233Z,2.38
2023-02-27T11:18:43.548Z,2.00
2023-02-27T11:22:03.432Z,2.30
2023-02-27T11:25:24.460Z,2.75
2023-02-27T11:28:31.453Z,2.43
2023-02-27T11:31:37.235Z,2.40
2023-02-27T11:34:49.710Z,2.28
2023-02-27T11:37:54.247Z,2.20
2023-02-27T11:41:06.867Z,2.60
2023-02-27T11:44:18.020Z,2.50
2023-02-27T11:47:44.158Z,2.35
2023-02-27T11:50:54.121Z,2.28
2023-02-27T11:54:32.483Z,2.30
2023-02-27T11:57:40.030Z,2.20
2023-02-27T12:00:50.567Z,2.00
2023-02-27T12:04:05.226Z,2.20
2023-02-27T12:07:32.610Z,1.98
2023-02-27T12:11:12.501Z,2.07
2023-02-27T12:14:40.799Z,1.90
2023-02-27T12:17:55.256Z,1.95
2023-02-27T12:21:17.481Z,2.30
2023-02-27T12:24:32.463Z,1.75
2023-02-27T12:27:52.735Z,2.05
2023-02-27T12:31:05.353Z,2.30
2023-02-27T12:34:19.636Z,1.70
2023-02-27T12:37:28.418Z,2.20
2023-02-27T12:40:36.181Z,2.20
2023-02-27T12:44:12.854Z,2.30
2023-02-27T12:47:40.098Z,2.33
2023-02-27T12:51:09.590Z,1.90
2023-02-27T12:54:50.643Z,1.80
2023-02-27T12:58:04.228Z,2.50
2023-02-27T13:01:43.338Z,1.75
2023-02-27T13:04:55.464Z,2.17
2023-02-27T13:08:29.344Z,2.10
2023-02-27T13:12:13.601Z,1.90
2023-02-27T13:15:53.564Z,2.17
2023-02-27T13:19:37.206Z,2.00
2023-02-27T13:22:49.721Z,1.92
2023-02-27T13:25:55.434Z,2.10
2023-02-27T13:28:59.099Z,2.30
2023-02-27T13:32:41.261Z,2.05
2023-02-27T13:36:07.371Z,2.10
2023-02-27T13:39:41.372Z,1.92
2023-02-27T13:42:46.652Z,2.10
2023-02-27T13:45:59.031Z,2.30
2023-02-27T13:49:10.577Z,2.20
2023-02-27T13:52:38.593Z,2.13
2023-02-27T13:55:40.723Z,2.10
2023-02-27T13:58:43.977Z,2.20
2023-02-27T14:01:55.106Z,2.55
2023-02-27T14:04:59.022Z,2.20
2023-02-27T14:08:08.365Z,2.60
2023-02-27T14:11:19.549Z,2.35
2023-02-27T14:14:48.235Z,2.70
2023-02-27T14:17:59.597Z,2.60
2023-02-27T14:21:14.385Z,2.13
2023-02-27T14:24:25.468Z,2.20
2023-02-27T14:27:46.175Z,2.22
2023-02-27T14:31:01.218Z,2.28
2023-02-27T14:34:09.159Z,2.40
2023-02-27T14:37:17.645Z,2.30
2023-02-27T14:40:32.845Z,2.85
2023-02-27T14:43:56.036Z,2.20
2023-02-27T14:47:03.856Z,2.20
2023-02-27T14:50:22.168Z,2.58
2023-02-27T14:53:27.308Z,2.53
2023-02-27T14:56:31.331Z,2.30
2023-02-27T14:59:45.831Z,2.50
2023-02-27T15:02:50.459Z,2.88
2023-02-27T15:05:58.224Z,2.55
2023-02-27T15:09:00.741Z,2.20
2023-02-27T15:12:04.813Z,2.30
2023-02-27T15:15:09.820Z,2.20
2023-02-27T15:18:14.844Z,2.30
2023-02-27T15:21:19.420Z,2.50
2023-02-27T15:24:48.849Z,2.33
2023-02-27T15:27:52.775Z,2.20
2023-02-27T15:30:57.919Z,2.42
2023-02-27T15:34:01.530Z,2.28
2023-02-27T15:37:07.667Z,2.17
2023-02-27T15:40:19.986Z,2.28
2023-02-27T15:43:24.895Z,2.35
2023-02-27T15:46:27.114Z,2.42
2023-02-27T15:49:30.472Z,2.37
2023-02-27T15:52:38.600Z,2.95
2023-02-27T15:56:06.663Z,3.33
2023-02-27T15:59:15.391Z,3.80
2023-02-27T16:02:24.029Z,5.90
2023-02-27T16:05:38.248Z,4.03
2023-02-27T16:08:46.199Z,3.22
2023-02-27T16:11:52.012Z,2.75
2023-02-27T16:15:09.885Z,2.80
2023-02-27T16:18:15.924Z,2.80
2023-02-27T16:21:27.029Z,2.40
2023-02-27T16:24:31.789Z,2.55
2023-02-27T16:27:33.732Z,2.45
2023-02-27T16:30:35.348Z,2.60
2023-02-27T16:33:39.061Z,2.75
2023-02-27T16:36:43.093Z,2.88
2023-02-27T16:39:47.200Z,3.20
2023-02-27T16:42:51.613Z,3.05
2023-02-27T16:45:56.429Z,3.25
2023-02-27T16:49:14.218Z,2.85
2023-02-27T16:52:22.718Z,2.53
2023-02-27T16:55:25.914Z,2.72
2023-02-27T16:58:27.614Z,2.58
2023-02-27T17:01:29.250Z,2.20
2023-02-27T17:04:32.515Z,2.10
2023-02-27T17:07:35.825Z,2.35
2023-02-27T17:10:39.539Z,1.90
2023-02-27T17:13:42.013Z,2.22
2023-02-27T17:16:44.541Z,2.63
2023-02-27T17:19:47.129Z,2.50
2023-02-27T17:22:52.714Z,2.40
2023-02-27T17:25:54.679Z,2.72
2023-02-27T17:28:58.703Z,2.10
2023-02-27T17:32:03.568Z,2.30
2023-02-27T17:35:05.637Z,2.17
2023-02-27T17:38:20.846Z,2.20
2023-02-27T17:41:24.184Z,2.20
2023-02-27T17:44:26.960Z,2.40
2023-02-27T17:47:30.309Z,2.25
2023-02-27T17:50:34.883Z,2.60
2023-02-27T17:53:37.404Z,2.87
2023-02-27T17:56:39.060Z,2.33
2023-02-27T17:59:41.005Z,3.00
2023-02-27T18:02:47.854Z,2.97
2023-02-27T18:05:53.911Z,3.67
2023-02-27T18:08:55.830Z,3.00
2023-02-27T18:11:58.136Z,3.00
2023-02-27T18:15:00.438Z,2.80
2023-02-27T18:18:02.015Z,3.00
2023-02-27T18:21:06.860Z,2.90
2023-02-27T18:24:11.085Z,3.30
2023-02-27T18:27:13.024Z,3.03
2023-02-27T18:30:16.026Z,3.53
2023-02-27T18:33:19.639Z,3.20
2023-02-27T18:36:21.417Z,2.92
2023-02-27T18:39:23.874Z,3.15
2023-02-27T18:42:26.175Z,3.42
2023-02-27T18:45:29.625Z,3.85
2023-02-27T18:48:31.607Z,4.07
2023-02-27T18:51:33.430Z,5.35
2023-02-27T18:54:36.179Z,3.43
2023-02-27T18:57:37.799Z,3.17
2023-02-27T19:00:41.955Z,3.17
2023-02-27T19:03:43.578Z,3.50
2023-02-27T19:06:45.350Z,3.30
2023-02-27T19:09:49.194Z,2.70
2023-02-27T19:12:53.886Z,2.80
2023-02-27T19:15:55.810Z,2.67
2023-02-27T19:18:59.866Z,2.95
2023-02-27T19:22:01.473Z,3.50
2023-02-27T19:25:03.106Z,3.10
2023-02-27T19:28:05.262Z,3.58
2023-02-27T19:31:12.594Z,3.80
2023-02-27T19:34:14.846Z,3.40
2023-02-27T19:37:17.102Z,3.28
2023-02-27T19:40:19.097Z,3.75
2023-02-27T19:43:22.428Z,2.90
2023-02-27T19:46:31.268Z,3.08
2023-02-27T19:49:33.153Z,3.63
2023-02-27T19:52:36.261Z,4.20
2023-02-27T19:55:38.098Z,3.70
2023-02-27T19:58:41.090Z,3.35
2023-02-27T20:01:42.809Z,3.55
2023-02-27T20:04:45.462Z,3.20
2023-02-27T20:07:48.569Z,3.10
2023-02-27T20:10:57.865Z,3.78
2023-02-27T20:13:59.844Z,3.30
2023-02-27T20:17:01.444Z,3.45
2023-02-27T20:20:05.232Z,3.30
2023-02-27T20:23:06.855Z,3.17
2023-02-27T20:26:17.836Z,3.30
2023-02-27T20:29:23.025Z,3.22
2023-02-27T20:32:29.674Z,3.28
2023-02-27T20:35:31.348Z,2.63
2023-02-27T20:38:34.106Z,2.92
2023-02-27T20:41:36.938Z,2.70
2023-02-27T20:44:38.641Z,2.72
2023-02-27T20:47:40.305Z,2.40
2023-02-27T20:50:41.913Z,2.45
2023-02-27T20:53:46.937Z,2.28
2023-02-27T20:56:56.822Z,2.90
2023-02-27T20:59:58.570Z,1.95
2023-02-27T21:03:00.834Z,2.28
2023-02-27T21:06:02.548Z,2.17
2023-02-27T21:09:06.376Z,2.17
2023-02-27T21:12:09.241Z,2.10
2023-02-27T21:15:11.559Z,2.30
2023-02-27T21:18:13.225Z,2.20
2023-02-27T21:21:17.015Z,2.20
2023-02-27T21:24:20.744Z,2.42
2023-02-27T21:27:23.918Z,2.30
2023-02-27T21:30:26.071Z,2.42
2023-02-27T21:33:28.059Z,2.10
2023-02-27T21:36:33.630Z,2.30
2023-02-27T21:39:35.804Z,2.20
2023-02-27T21:42:37.438Z,1.98
2023-02-27T21:45:43.966Z,2.10
2023-02-27T21:48:45.657Z,2.15
2023-02-27T21:51:47.406Z,2.50
2023-02-27T21:54:51.153Z,2.00
2023-02-27T21:57:54.231Z,2.30
2023-02-27T22:00:55.804Z,2.28
2023-02-27T22:03:57.985Z,2.05
2023-02-27T22:06:59.706Z,2.20
2023-02-27T22:10:01.427Z,2.58
2023-02-27T22:13:03.140Z,2.08
2023-02-27T22:16:06.696Z,2.20
2023-02-27T22:19:10.906Z,2.20
2023-02-27T22:22:12.527Z,2.22
2023-02-27T22:25:14.891Z,2.47
2023-02-27T22:28:16.602Z,2.00
2023-02-27T22:31:24.095Z,2.50
2023-02-27T22:34:27.848Z,2.50
2023-02-27T22:37:30.232Z,2.53
2023-02-27T22:40:36.080Z,2.63
2023-02-27T22:43:39.816Z,2.28
2023-02-27T22:46:46.632Z,2.58
2023-02-27T22:49:52.349Z,2.40
2023-02-27T22:52:54.320Z,2.50
2023-02-27T22:55:56.856Z,2.28
2023-02-27T22:58:59.762Z,2.33
2023-02-27T23:02:02.315Z,2.50
2023-02-27T23:05:04.129Z,2.10
2023-02-27T23:08:06.361Z,2.30
2023-02-27T23:11:08.765Z,2.50
2023-02-27T23:14:12.595Z,2.40
2023-02-27T23:17:14.323Z,2.33
2023-02-27T23:20:16.187Z,2.60
2023-02-27T23:23:17.856Z,2.55
2023-02-27T23:26:19.821Z,2.60
2023-02-27T23:29:21.903Z,2.63
2023-02-27T23:32:24.719Z,2.40
2023-02-27T23:35:28.324Z,2.65
2023-02-27T23:38:31.049Z,2.60
2023-02-27T23:41:33.964Z,2.60
2023-02-27T23:44:36.836Z,2.55
2023-02-27T23:47:44.721Z,2.80
2023-02-27T23:50:46.380Z,2.50
2023-02-27T23:53:47.995Z,2.72
2023-02-27T23:56:49.741Z,2.60
2023-02-27T23:59:53.429Z,2.37
